createdAt,value
2019-05-07T00:00:45.397Z,0.40
2019-05-07T00:03:13.382Z,0.30
2019-05-07T00:08:12.078Z,0.20
2019-05-07T00:10:42.311Z,0.00
2019-05-07T00:13:09.304Z,-0.10
2019-05-07T00:15:36.947Z,0.00
2019-05-07T00:18:04.954Z,0.00
2019-05-07T00:20:32.949Z,0.00
2019-05-07T00:23:02.754Z,0.00
2019-05-07T00:25:30.055Z,0.00
2019-05-07T00:27:57.795Z,-0.10
2019-05-07T00:30:25.464Z,-0.10
2019-05-07T00:32:53.238Z,-0.20
2019-05-07T00:35:25.442Z,-0.20
2019-05-07T00:37:54.747Z,-0.10
2019-05-07T00:40:42.577Z,0.00
2019-05-07T00:43:17.904Z,0.00
2019-05-07T00:45:48.039Z,-0.30
2019-05-07T00:48:15.701Z,-0.40
2019-05-07T00:50:45.244Z,-0.30
2019-05-07T00:53:13.194Z,-0.30
2019-05-07T00:55:42.324Z,-0.40
2019-05-07T00:58:10.240Z,-0.40
2019-05-07T01:00:38.074Z,-0.40
2019-05-07T01:03:06.895Z,-0.20
2019-05-07T01:05:34.622Z,-0.30
2019-05-07T01:08:02.700Z,0.00
2019-05-07T01:10:32.816Z,0.10
2019-05-07T01:12:59.853Z,0.20
2019-05-07T01:15:31.392Z,0.20
2019-05-07T01:17:56.979Z,0.30
2019-05-07T01:20:24.910Z,0.30
2019-05-07T01:22:54.449Z,0.30
2019-05-07T01:25:22.213Z,0.30
2019-05-07T01:27:49.945Z,0.40
2019-05-07T01:30:18.131Z,0.30
2019-05-07T01:32:47.487Z,0.30
2019-05-07T01:35:25.557Z,0.20
2019-05-07T01:37:53.207Z,0.10
2019-05-07T01:40:22.764Z,0.00
2019-05-07T01:42:50.420Z,0.00
2019-05-07T01:45:18.127Z,0.00
2019-05-07T01:47:46.568Z,-0.10
2019-05-07T01:50:14.674Z,0.00
2019-05-07T01:52:42.768Z,0.00
2019-05-07T01:55:12.931Z,0.10
2019-05-07T01:57:42.103Z,0.20
2019-05-07T02:00:10.056Z,0.20
2019-05-07T02:02:45.296Z,0.20
2019-05-07T02:05:17.644Z,0.20
2019-05-07T02:07:54.220Z,0.20
2019-05-07T02:10:24.940Z,0.10
2019-05-07T02:12:53.868Z,0.00
2019-05-07T02:15:22.647Z,0.10
2019-05-07T02:17:52.443Z,0.00
2019-05-07T02:20:19.938Z,0.00
2019-05-07T02:22:47.724Z,-0.20
2019-05-07T02:25:15.451Z,-0.20
2019-05-07T02:27:43.103Z,-0.40
2019-05-07T02:30:14.385Z,-0.40
2019-05-07T02:32:43.148Z,-0.90
2019-05-07T02:35:13.362Z,-0.90
2019-05-07T02:37:48.564Z,-1.10
2019-05-07T02:40:18.445Z,-1.00
2019-05-07T02:42:46.172Z,-1.00
2019-05-07T02:45:17.007Z,-0.90
2019-05-07T02:47:44.733Z,-0.80
2019-05-07T02:50:32.970Z,-0.90
2019-05-07T02:53:05.019Z,-0.90
2019-05-07T02:55:37.236Z,-1.00
2019-05-07T02:58:04.980Z,-1.20
2019-05-07T03:00:33.512Z,-1.20
2019-05-07T03:03:04.052Z,-1.20
2019-05-07T03:05:34.577Z,-1.20
2019-05-07T03:08:03.332Z,-1.20
2019-05-07T03:10:33.590Z,-1.20
2019-05-07T03:13:02.735Z,-1.20
2019-05-07T03:15:32.825Z,-1.10
2019-05-07T03:17:59.035Z,-1.20
2019-05-07T03:20:33.392Z,-1.20
2019-05-07T03:23:03.137Z,-1.20
2019-05-07T03:25:33.885Z,-1.20
2019-05-07T03:28:04.386Z,-1.30
2019-05-07T03:30:45.714Z,-1.20
2019-05-07T03:33:26.124Z,-1.10
2019-05-07T03:35:56.861Z,-1.00
2019-05-07T03:38:24.995Z,-1.10
2019-05-07T03:40:53.235Z,-0.90
2019-05-07T03:43:22.907Z,-0.90
2019-05-07T03:45:58.331Z,-1.00
2019-05-07T03:48:28.329Z,-1.00
2019-05-07T03:50:56.211Z,-0.90
2019-05-07T03:53:24.254Z,-0.90
2019-05-07T03:55:53.815Z,-0.90
2019-05-07T03:58:23.631Z,-0.80
2019-05-07T04:00:53.622Z,-0.70
2019-05-07T04:03:24.326Z,-0.60
2019-05-07T04:05:52.823Z,-0.70
2019-05-07T04:08:19.081Z,-0.60
2019-05-07T04:10:47.149Z,-0.70
2019-05-07T04:13:14.868Z,-0.70
2019-05-07T04:15:44.042Z,-0.60
2019-05-07T04:18:13.370Z,-0.50
2019-05-07T04:20:43.492Z,-0.50
2019-05-07T04:23:13.471Z,-0.50
2019-05-07T04:25:53.004Z,-0.40
2019-05-07T04:28:23.618Z,-0.30
2019-05-07T04:30:53.283Z,-0.30
2019-05-07T04:33:23.719Z,-0.20
2019-05-07T04:35:53.816Z,-0.10
2019-05-07T04:38:23.829Z,0.00
2019-05-07T04:40:53.518Z,0.30
2019-05-07T04:43:23.281Z,0.50
2019-05-07T04:45:53.695Z,0.50
2019-05-07T04:48:23.256Z,0.50
2019-05-07T04:50:54.220Z,0.70
2019-05-07T04:53:23.681Z,0.90
2019-05-07T04:55:53.603Z,0.90
2019-05-07T04:58:23.976Z,1.10
2019-05-07T05:00:50.249Z,3.70
2019-05-07T05:03:19.691Z,1.50
2019-05-07T05:05:47.754Z,1.60
2019-05-07T05:08:15.467Z,1.70
2019-05-07T05:10:43.526Z,1.80
2019-05-07T05:13:12.885Z,2.10
2019-05-07T05:15:42.903Z,2.20
2019-05-07T05:20:42.238Z,2.30
2019-05-07T05:23:28.422Z,2.40
2019-05-07T05:25:56.074Z,2.60
2019-05-07T05:28:23.731Z,2.70
2019-05-07T05:30:53.088Z,2.90
2019-05-07T05:33:23.269Z,3.00
2019-05-07T05:35:52.406Z,3.20
2019-05-07T05:38:21.964Z,3.30
2019-05-07T05:40:51.853Z,3.30
2019-05-07T05:43:22.375Z,3.60
2019-05-07T05:45:53.008Z,3.90
2019-05-07T05:50:53.573Z,4.20
2019-05-07T05:53:26.049Z,4.40
2019-05-07T05:55:54.864Z,4.50
2019-05-07T05:58:24.363Z,4.70
2019-05-07T06:00:59.456Z,4.80
2019-05-07T06:03:34.614Z,4.80
2019-05-07T06:06:16.569Z,4.80
2019-05-07T06:08:46.171Z,5.00
2019-05-07T06:11:15.522Z,5.10
2019-05-07T06:13:44.938Z,5.40
2019-05-07T06:16:14.219Z,5.60
2019-05-07T06:18:55.820Z,5.50
2019-05-07T06:21:42.003Z,5.90
2019-05-07T06:24:17.406Z,6.10
2019-05-07T06:26:45.123Z,6.10
2019-05-07T06:29:12.766Z,6.10
2019-05-07T06:31:42.202Z,6.30
2019-05-07T06:34:11.944Z,6.40
2019-05-07T06:36:42.420Z,6.40
2019-05-07T06:39:22.188Z,6.50
2019-05-07T06:41:52.536Z,6.60
2019-05-07T06:44:22.484Z,6.90
2019-05-07T06:46:52.495Z,6.90
2019-05-07T06:49:22.142Z,7.30
2019-05-07T06:51:49.153Z,7.50
2019-05-07T06:56:44.688Z,7.90
2019-05-07T06:59:34.316Z,8.10
2019-05-07T07:02:12.729Z,8.00
2019-05-07T07:04:42.440Z,8.20
2019-05-07T07:07:24.041Z,8.30
2019-05-07T07:09:42.913Z,8.30
2019-05-07T07:12:27.462Z,8.50
2019-05-07T07:14:57.963Z,8.70
2019-05-07T07:17:24.578Z,8.70
2019-05-07T07:19:52.431Z,8.80
2019-05-07T07:22:22.149Z,8.90
2019-05-07T07:24:49.848Z,9.10
2019-05-07T07:27:17.678Z,9.10
2019-05-07T07:29:50.004Z,9.30
2019-05-07T07:32:19.354Z,9.20
2019-05-07T07:34:49.099Z,9.40
2019-05-07T07:37:22.908Z,9.40
2019-05-07T07:39:52.470Z,9.60
2019-05-07T07:42:20.207Z,10.20
2019-05-07T07:44:49.499Z,10.50
2019-05-07T07:47:17.288Z,10.90
2019-05-07T07:49:45.207Z,10.80
2019-05-07T07:52:12.931Z,10.10
2019-05-07T07:54:42.681Z,9.80
2019-05-07T07:57:21.812Z,9.80
2019-05-07T07:59:53.950Z,9.90
2019-05-07T08:02:29.248Z,9.70
2019-05-07T08:04:57.295Z,9.60
2019-05-07T08:07:24.941Z,9.90
2019-05-07T08:09:52.592Z,9.90
2019-05-07T08:12:22.154Z,9.90
2019-05-07T08:14:51.901Z,9.80
2019-05-07T08:17:22.163Z,9.90
2019-05-07T08:19:52.252Z,9.90
2019-05-07T08:22:22.370Z,10.40
2019-05-07T08:24:51.756Z,10.30
2019-05-07T08:27:19.075Z,10.20
2019-05-07T08:29:47.030Z,10.20
2019-05-07T08:32:16.329Z,10.20
2019-05-07T08:34:45.617Z,9.80
2019-05-07T08:37:13.472Z,9.80
2019-05-07T08:39:42.889Z,9.70
2019-05-07T08:42:12.297Z,9.40
2019-05-07T08:44:52.003Z,9.40
2019-05-07T08:47:33.371Z,9.80
2019-05-07T08:50:02.898Z,10.10
2019-05-07T08:52:32.577Z,10.20
2019-05-07T08:55:02.128Z,10.30
2019-05-07T08:57:31.715Z,10.40
2019-05-07T09:00:01.637Z,10.40
2019-05-07T09:02:28.783Z,9.90
2019-05-07T09:04:56.459Z,9.90
2019-05-07T09:07:24.121Z,10.30
2019-05-07T09:09:52.369Z,10.40
2019-05-07T09:12:20.245Z,10.40
2019-05-07T09:14:47.893Z,10.40
2019-05-07T09:17:15.661Z,10.30
2019-05-07T09:19:50.849Z,10.40
2019-05-07T09:22:13.029Z,10.40
2019-05-07T09:24:42.447Z,10.30
2019-05-07T09:27:15.120Z,10.60
2019-05-07T09:29:44.488Z,10.60
2019-05-07T09:32:19.695Z,10.90
2019-05-07T09:34:48.983Z,10.80
2019-05-07T09:37:32.429Z,10.70
2019-05-07T09:40:02.569Z,10.70
2019-05-07T09:42:29.395Z,11.30
2019-05-07T09:44:57.167Z,11.40
2019-05-07T09:47:24.892Z,11.40
2019-05-07T09:50:03.971Z,11.90
2019-05-07T09:52:22.893Z,11.60
2019-05-07T09:54:52.194Z,11.60
2019-05-07T09:57:29.382Z,11.50
2019-05-07T09:59:49.712Z,11.60
2019-05-07T10:02:17.677Z,11.70
2019-05-07T10:04:45.332Z,11.50
2019-05-07T10:07:13.049Z,11.40
2019-05-07T10:09:42.592Z,11.60
2019-05-07T10:12:12.308Z,11.60
2019-05-07T10:14:41.955Z,11.40
2019-05-07T10:17:22.381Z,11.40
2019-05-07T10:19:52.270Z,11.20
2019-05-07T10:22:19.848Z,11.20
2019-05-07T10:24:47.581Z,11.30
2019-05-07T10:27:15.429Z,11.60
2019-05-07T10:29:43.470Z,11.50
2019-05-07T10:32:12.816Z,11.60
2019-05-07T10:34:42.209Z,11.60
2019-05-07T10:37:12.002Z,11.70
2019-05-07T10:39:39.595Z,11.50
2019-05-07T10:42:07.347Z,11.60
2019-05-07T10:44:37.094Z,11.60
2019-05-07T10:47:22.927Z,11.70
2019-05-07T10:49:52.649Z,11.80
2019-05-07T10:52:20.323Z,11.80
2019-05-07T10:54:59.017Z,11.70
2019-05-07T10:57:17.445Z,11.70
2019-05-07T10:59:45.100Z,11.90
2019-05-07T11:02:21.933Z,11.90
2019-05-07T11:04:49.768Z,12.00
2019-05-07T11:07:17.487Z,12.00
2019-05-07T11:09:45.159Z,12.20
2019-05-07T11:12:12.873Z,12.40
2019-05-07T11:14:40.660Z,12.40
2019-05-07T11:17:11.926Z,12.40
2019-05-07T11:19:41.593Z,12.40
2019-05-07T11:22:09.105Z,12.30
2019-05-07T11:24:36.991Z,12.30
2019-05-07T11:27:04.712Z,12.30
2019-05-07T11:29:33.821Z,12.40
2019-05-07T11:32:01.872Z,12.40
2019-05-07T11:34:32.747Z,12.20
2019-05-07T11:37:02.459Z,12.20
2019-05-07T11:39:30.410Z,11.80
2019-05-07T11:42:16.324Z,11.70
2019-05-07T11:44:44.060Z,11.60
2019-05-07T11:47:13.467Z,11.70
2019-05-07T11:49:59.061Z,11.50
2019-05-07T11:52:28.541Z,11.10
2019-05-07T11:54:56.183Z,11.00
2019-05-07T11:57:23.845Z,10.90
2019-05-07T11:59:52.006Z,10.80
2019-05-07T12:02:22.639Z,10.80
2019-05-07T12:04:52.217Z,10.70
2019-05-07T12:07:21.959Z,10.80
2019-05-07T12:09:49.320Z,11.00
2019-05-07T12:12:16.968Z,11.10
2019-05-07T12:14:44.720Z,11.20
2019-05-07T12:17:12.386Z,11.60
2019-05-07T12:19:43.738Z,11.80
2019-05-07T12:22:09.521Z,12.20
2019-05-07T12:24:37.427Z,12.30
2019-05-07T12:27:05.447Z,12.20
2019-05-07T12:29:33.289Z,12.20
2019-05-07T12:32:11.836Z,12.10
2019-05-07T12:34:42.339Z,12.10
2019-05-07T12:37:12.293Z,12.20
2019-05-07T12:39:39.789Z,12.30
2019-05-07T12:42:07.561Z,12.10
2019-05-07T12:44:35.275Z,12.30
2019-05-07T12:47:03.063Z,12.30
2019-05-07T12:49:32.469Z,12.50
2019-05-07T12:52:02.367Z,12.40
2019-05-07T12:54:52.335Z,12.70
2019-05-07T12:57:19.604Z,12.40
2019-05-07T12:59:49.605Z,12.30
2019-05-07T13:02:38.028Z,12.30
2019-05-07T13:04:58.108Z,12.30
2019-05-07T13:07:27.562Z,12.30
2019-05-07T13:09:55.502Z,12.20
2019-05-07T13:13:12.295Z,12.10
2019-05-07T13:15:43.184Z,12.00
2019-05-07T13:18:09.651Z,12.00
2019-05-07T13:20:37.372Z,11.90
2019-05-07T13:23:05.045Z,11.80
2019-05-07T13:25:32.969Z,11.80
2019-05-07T13:28:02.575Z,11.80
2019-05-07T13:30:30.235Z,12.00
2019-05-07T13:32:59.060Z,11.90
2019-05-07T13:35:26.793Z,11.90
2019-05-07T13:38:05.151Z,11.90
2019-05-07T13:40:37.567Z,11.90
2019-05-07T13:43:16.072Z,11.90
2019-05-07T13:45:57.792Z,11.90
2019-05-07T13:48:26.577Z,11.90
2019-05-07T13:50:54.227Z,11.90
2019-05-07T13:53:22.868Z,11.80
2019-05-07T13:55:50.990Z,11.70
2019-05-07T13:58:20.306Z,11.70
2019-05-07T14:00:50.223Z,11.60
2019-05-07T14:03:17.947Z,11.60
2019-05-07T14:05:45.819Z,11.50
2019-05-07T14:08:14.269Z,11.40
2019-05-07T14:10:42.491Z,11.40
2019-05-07T14:13:16.673Z,11.40
2019-05-07T14:15:43.016Z,11.20
2019-05-07T14:18:11.562Z,11.20
2019-05-07T14:20:39.384Z,11.20
2019-05-07T14:23:07.303Z,11.10
2019-05-07T14:25:35.219Z,11.10
2019-05-07T14:28:02.949Z,11.00
2019-05-07T14:30:32.745Z,11.00
2019-05-07T14:33:06.114Z,11.00
2019-05-07T14:35:53.848Z,10.90
2019-05-07T14:38:26.289Z,10.90
2019-05-07T14:40:54.023Z,10.90
2019-05-07T14:43:26.421Z,11.00
2019-05-07T14:45:54.266Z,11.00
2019-05-07T14:48:22.682Z,11.00
2019-05-07T14:50:50.371Z,11.10
2019-05-07T14:53:18.228Z,11.10
2019-05-07T14:55:45.984Z,11.30
2019-05-07T15:00:42.691Z,11.50
2019-05-07T15:03:12.452Z,11.60
2019-05-07T15:05:42.280Z,11.60
2019-05-07T15:08:11.766Z,11.60
2019-05-07T15:10:41.709Z,11.60
2019-05-07T15:13:09.220Z,11.60
2019-05-07T15:15:36.969Z,11.60
2019-05-07T15:18:15.420Z,11.60
2019-05-07T15:20:42.007Z,11.60
2019-05-07T15:23:11.990Z,11.70
2019-05-07T15:25:40.022Z,11.60
2019-05-07T15:28:07.856Z,11.60
2019-05-07T15:30:41.755Z,11.70
2019-05-07T15:33:09.704Z,11.80
2019-05-07T15:35:38.196Z,11.70
2019-05-07T15:38:06.107Z,11.80
2019-05-07T15:40:33.839Z,11.90
2019-05-07T15:45:30.041Z,12.00
2019-05-07T15:47:58.271Z,12.00
2019-05-07T15:50:27.683Z,12.10
2019-05-07T15:53:01.637Z,12.10
2019-05-07T15:55:29.214Z,12.10
2019-05-07T15:57:57.402Z,12.00
2019-05-07T16:00:29.959Z,12.00
2019-05-07T16:03:02.662Z,12.00
2019-05-07T16:05:31.927Z,12.30
2019-05-07T16:08:01.651Z,13.80
2019-05-07T16:10:32.393Z,15.10
2019-05-07T16:12:59.850Z,14.90
2019-05-07T16:15:27.495Z,14.20
2019-05-07T16:18:06.327Z,13.50
2019-05-07T16:20:34.049Z,12.90
2019-05-07T16:23:14.058Z,12.30
2019-05-07T16:25:32.899Z,12.20
2019-05-07T16:28:04.467Z,12.10
2019-05-07T16:30:32.226Z,12.00
2019-05-07T16:33:01.706Z,12.00
2019-05-07T16:35:29.082Z,11.90
2019-05-07T16:37:56.949Z,11.80
2019-05-07T16:40:24.662Z,11.60
2019-05-07T16:42:52.546Z,11.50
2019-05-07T16:45:20.654Z,11.50
2019-05-07T16:47:48.304Z,11.50
2019-05-07T16:50:16.091Z,11.40
2019-05-07T16:52:43.808Z,11.40
2019-05-07T16:55:12.311Z,11.40
2019-05-07T16:57:56.819Z,11.40
2019-05-07T17:00:32.231Z,11.30
2019-05-07T17:03:02.197Z,11.40
2019-05-07T17:05:31.962Z,11.40
2019-05-07T17:08:02.467Z,11.40
2019-05-07T17:10:31.776Z,11.40
2019-05-07T17:13:02.880Z,11.40
2019-05-07T17:15:33.112Z,11.40
2019-05-07T17:18:02.875Z,11.40
2019-05-07T17:20:32.744Z,11.40
2019-05-07T17:23:02.768Z,11.40
2019-05-07T17:25:39.246Z,11.30
2019-05-07T17:28:08.429Z,11.20
2019-05-07T17:30:37.753Z,11.10
2019-05-07T17:33:06.597Z,11.00
2019-05-07T17:35:34.594Z,11.00
2019-05-07T17:38:07.262Z,10.90
2019-05-07T17:40:32.183Z,10.70
2019-05-07T17:42:59.911Z,10.60
2019-05-07T17:45:28.197Z,10.60
2019-05-07T17:47:56.072Z,10.50
2019-05-07T17:50:25.365Z,10.50
2019-05-07T17:52:53.480Z,10.40
2019-05-07T17:55:22.344Z,10.40
2019-05-07T17:57:51.903Z,10.20
2019-05-07T18:00:22.096Z,10.10
2019-05-07T18:02:54.462Z,10.10
2019-05-07T18:05:22.376Z,10.10
2019-05-07T18:07:50.080Z,10.00
2019-05-07T18:10:17.812Z,9.90
2019-05-07T18:12:45.473Z,9.90
2019-05-07T18:15:13.220Z,9.90
2019-05-07T18:17:42.534Z,9.90
2019-05-07T18:20:10.263Z,9.70
2019-05-07T18:22:38.066Z,9.60
2019-05-07T18:25:05.787Z,9.60
2019-05-07T18:27:33.520Z,9.50
2019-05-07T18:30:02.776Z,9.50
2019-05-07T18:32:36.137Z,9.40
2019-05-07T18:35:05.350Z,9.40
2019-05-07T18:37:33.570Z,9.20
2019-05-07T18:40:02.552Z,9.20
2019-05-07T18:42:32.549Z,9.00
2019-05-07T18:47:28.956Z,9.00
2019-05-07T18:49:56.819Z,9.00
2019-05-07T18:52:24.536Z,8.90
2019-05-07T18:54:52.266Z,8.90
2019-05-07T18:57:22.064Z,8.70
2019-05-07T18:59:49.467Z,8.60
2019-05-07T19:02:17.263Z,8.60
2019-05-07T19:04:45.394Z,8.50
2019-05-07T19:07:13.286Z,8.50
2019-05-07T19:09:42.428Z,8.40
2019-05-07T19:12:13.039Z,8.40
2019-05-07T19:14:42.306Z,8.40
2019-05-07T19:17:12.216Z,8.40
2019-05-07T19:19:41.726Z,8.30
2019-05-07T19:22:09.413Z,8.20
2019-05-07T19:24:45.282Z,8.20
2019-05-07T19:27:06.436Z,8.20
2019-05-07T19:29:34.224Z,8.10
2019-05-07T19:32:03.222Z,7.90
2019-05-07T19:34:32.505Z,7.90
2019-05-07T19:37:02.460Z,7.60
2019-05-07T19:39:32.283Z,7.60
2019-05-07T19:41:59.515Z,7.40
2019-05-07T19:44:27.296Z,7.40
2019-05-07T19:51:52.201Z,7.20
2019-05-07T19:54:19.609Z,7.20
2019-05-07T19:56:47.373Z,7.10
2019-05-07T19:59:15.165Z,7.00
2019-05-07T20:01:44.460Z,6.90
2019-05-07T20:04:13.268Z,6.80
2019-05-07T20:06:42.863Z,6.80
2019-05-07T20:09:14.796Z,6.70
2019-05-07T20:11:42.565Z,6.70
2019-05-07T20:14:10.380Z,6.70
2019-05-07T20:16:38.024Z,6.50
2019-05-07T20:19:05.659Z,6.50
2019-05-07T20:21:33.804Z,6.40
2019-05-07T20:24:01.940Z,6.20
2019-05-07T20:26:32.089Z,6.00
2019-05-07T20:28:59.254Z,6.10
2019-05-07T20:31:26.975Z,6.10
2019-05-07T20:33:54.639Z,5.90
2019-05-07T20:36:22.429Z,5.90
2019-05-07T20:38:51.962Z,5.90
2019-05-07T20:41:19.469Z,5.90
2019-05-07T20:43:47.162Z,5.90
2019-05-07T20:46:14.850Z,5.80
2019-05-07T20:48:42.541Z,5.70
2019-05-07T20:51:12.187Z,5.60
2019-05-07T20:53:53.102Z,5.50
2019-05-07T20:56:22.656Z,5.50
2019-05-07T20:58:52.050Z,5.30
2019-05-07T21:01:21.989Z,5.20
2019-05-07T21:03:49.450Z,5.10
2019-05-07T21:06:17.350Z,5.20
2019-05-07T21:08:45.063Z,5.20
2019-05-07T21:11:12.711Z,5.20
2019-05-07T21:13:44.090Z,5.20
2019-05-07T21:16:12.540Z,5.10
2019-05-07T21:18:41.947Z,5.20
2019-05-07T21:21:09.281Z,5.20
2019-05-07T21:23:37.062Z,5.20
2019-05-07T21:26:05.058Z,5.20
2019-05-07T21:28:33.063Z,5.20
2019-05-07T21:31:02.791Z,5.20
2019-05-07T21:33:32.175Z,5.20
2019-05-07T21:36:02.683Z,5.10
2019-05-07T21:38:29.906Z,5.10
2019-05-07T21:40:58.038Z,5.00
2019-05-07T21:43:25.820Z,4.70
2019-05-07T21:45:53.541Z,4.60
2019-05-07T21:48:22.283Z,4.60
2019-05-07T21:50:51.937Z,4.60
2019-05-07T21:53:24.274Z,4.50
2019-05-07T21:56:01.908Z,4.50
2019-05-07T21:58:33.603Z,4.50
2019-05-07T22:01:19.299Z,4.50
2019-05-07T22:03:48.787Z,4.60
2019-05-07T22:06:16.443Z,4.60
2019-05-07T22:08:44.090Z,4.50
2019-05-07T22:11:39.229Z,4.50
2019-05-07T22:14:06.959Z,4.40
2019-05-07T22:16:34.753Z,4.30
2019-05-07T22:19:02.918Z,4.30
2019-05-07T22:21:33.928Z,4.20
2019-05-07T22:24:02.798Z,3.70
2019-05-07T22:26:32.168Z,3.70
2019-05-07T22:28:59.798Z,3.60
2019-05-07T22:31:29.163Z,3.60
2019-05-07T22:33:59.349Z,3.40
2019-05-07T22:36:27.184Z,3.30
2019-05-07T22:38:54.870Z,3.00
2019-05-07T22:41:22.779Z,3.20
2019-05-07T22:43:51.037Z,3.10
2019-05-07T22:46:18.687Z,2.90
2019-05-07T22:48:46.344Z,2.90
2019-05-07T22:51:14.036Z,2.80
2019-05-07T22:53:41.717Z,2.70
2019-05-07T22:56:09.375Z,2.60
2019-05-07T22:58:39.055Z,2.60
2019-05-07T23:01:08.348Z,2.50
2019-05-07T23:03:36.072Z,2.30
2019-05-07T23:06:07.056Z,2.30
2019-05-07T23:08:35.770Z,2.30
2019-05-07T23:11:03.521Z,2.20
2019-05-07T23:13:31.845Z,2.20
2019-05-07T23:15:59.668Z,2.20
2019-05-07T23:18:27.317Z,2.20
2019-05-07T23:20:55.420Z,2.10
2019-05-07T23:23:23.074Z,2.10
2019-05-07T23:25:52.358Z,2.00
2019-05-07T23:28:20.345Z,2.00
2019-05-07T23:30:48.064Z,2.00
2019-05-07T23:33:16.068Z,1.90
2019-05-07T23:35:43.880Z,2.00
2019-05-07T23:38:12.941Z,2.00
2019-05-07T23:40:45.068Z,2.00
2019-05-07T23:43:22.602Z,2.00
2019-05-07T23:45:49.998Z,1.90
2019-05-07T23:48:17.945Z,1.80
2019-05-07T23:50:45.686Z,1.80
2019-05-07T23:55:42.442Z,1.70
2019-05-07T23:58:13.856Z,1.70
